createdAt,value
2023-07-23T00:01:23.294Z,7.21
2023-07-23T00:03:51.564Z,7.53
2023-07-23T00:06:19.729Z,7.56
2023-07-23T00:08:50.006Z,7.25
2023-07-23T00:11:18.120Z,7.38
2023-07-23T00:13:46.260Z,7.48
2023-07-23T00:16:14.423Z,7.06
2023-07-23T00:18:42.566Z,7.53
2023-07-23T00:21:12.781Z,7.13
2023-07-23T00:23:40.731Z,7.44
2023-07-23T00:26:08.765Z,6.70
2023-07-23T00:28:36.859Z,6.64
2023-07-23T00:31:07.366Z,6.81
2023-07-23T00:33:37.833Z,6.77
2023-07-23T00:36:06.904Z,7.02
2023-07-23T00:38:35.000Z,7.02
2023-07-23T00:41:04.436Z,6.66
2023-07-23T00:43:39.692Z,6.71
2023-07-23T00:46:09.849Z,6.63
2023-07-23T00:48:37.968Z,6.80
2023-07-23T00:51:08.164Z,6.50
2023-07-23T00:53:36.524Z,6.30
2023-07-23T00:56:06.670Z,6.30
2023-07-23T00:58:34.962Z,6.45
2023-07-23T01:01:03.478Z,6.39
2023-07-23T01:03:35.071Z,6.25
2023-07-23T01:06:03.812Z,6.42
2023-07-23T01:08:34.101Z,6.34
2023-07-23T01:11:03.031Z,6.53
2023-07-23T01:13:31.110Z,6.04
2023-07-23T01:16:00.486Z,6.23
2023-07-23T01:18:28.687Z,5.98
2023-07-23T01:20:58.721Z,6.18
2023-07-23T01:23:26.727Z,6.31
2023-07-23T01:25:56.920Z,6.33
2023-07-23T01:28:25.426Z,6.25
2023-07-23T01:30:56.643Z,6.29
2023-07-23T01:33:24.750Z,6.12
2023-07-23T01:35:57.189Z,6.44
2023-07-23T01:38:25.242Z,6.51
2023-07-23T01:40:54.338Z,6.14
2023-07-23T01:43:23.686Z,6.12
2023-07-23T01:45:52.080Z,6.35
2023-07-23T01:48:23.503Z,6.31
2023-07-23T01:50:52.339Z,6.18
2023-07-23T01:53:20.611Z,6.37
2023-07-23T01:55:53.195Z,5.92
2023-07-23T01:58:21.591Z,5.94
2023-07-23T02:00:49.766Z,5.97
2023-07-23T02:03:17.827Z,5.97
2023-07-23T02:05:56.341Z,5.81
2023-07-23T02:08:26.752Z,5.90
2023-07-23T02:11:01.998Z,6.10
2023-07-23T02:13:30.515Z,5.99
2023-07-23T02:15:58.792Z,5.65
2023-07-23T02:18:27.223Z,5.74
2023-07-23T02:20:55.378Z,5.93
2023-07-23T02:23:23.473Z,5.84
2023-07-23T02:25:51.570Z,6.25
2023-07-23T02:28:19.799Z,5.89
2023-07-23T02:30:48.569Z,5.75
2023-07-23T02:33:16.687Z,6.14
2023-07-23T02:35:45.420Z,5.90
2023-07-23T02:38:13.663Z,6.28
2023-07-23T02:40:41.833Z,6.00
2023-07-23T02:43:13.588Z,6.28
2023-07-23T02:45:43.711Z,6.04
2023-07-23T02:48:14.494Z,6.41
2023-07-23T02:50:44.819Z,6.11
2023-07-23T02:53:12.920Z,6.16
2023-07-23T02:55:41.002Z,5.92
2023-07-23T02:58:09.088Z,6.22
2023-07-23T03:00:40.721Z,6.14
2023-07-23T03:03:09.150Z,6.30
2023-07-23T03:05:40.227Z,6.18
2023-07-23T03:08:08.387Z,6.42
2023-07-23T03:10:38.207Z,6.41
2023-07-23T03:13:08.726Z,6.48
2023-07-23T03:15:36.851Z,6.30
2023-07-23T03:18:05.016Z,6.12
2023-07-23T03:20:33.339Z,6.25
2023-07-23T03:23:03.771Z,5.93
2023-07-23T03:25:31.845Z,6.21
2023-07-23T03:28:00.973Z,6.38
2023-07-23T03:30:29.237Z,6.44
2023-07-23T03:32:57.461Z,6.14
2023-07-23T03:35:25.605Z,6.35
2023-07-23T03:37:54.456Z,6.46
2023-07-23T03:40:22.919Z,6.04
2023-07-23T03:42:51.298Z,6.26
2023-07-23T03:45:19.968Z,5.95
2023-07-23T03:47:48.131Z,6.13
2023-07-23T03:50:16.374Z,5.99
2023-07-23T03:52:44.531Z,5.72
2023-07-23T03:55:13.009Z,5.96
2023-07-23T03:57:41.069Z,6.03
2023-07-23T04:00:11.995Z,5.96
2023-07-23T04:02:39.974Z,5.85
2023-07-23T04:05:08.610Z,6.17
2023-07-23T04:07:36.624Z,6.00
2023-07-23T04:10:04.984Z,5.84
2023-07-23T04:12:36.413Z,5.77
2023-07-23T04:15:05.000Z,5.91
2023-07-23T04:17:33.690Z,5.99
2023-07-23T04:20:02.022Z,5.91
2023-07-23T04:22:30.684Z,6.18
2023-07-23T04:24:58.837Z,6.04
2023-07-23T04:27:26.992Z,5.63
2023-07-23T04:29:55.431Z,5.78
2023-07-23T04:32:23.507Z,5.51
2023-07-23T04:34:51.729Z,6.24
2023-07-23T04:37:19.866Z,6.00
2023-07-23T04:39:49.440Z,5.58
2023-07-23T04:42:17.612Z,5.60
2023-07-23T04:44:45.719Z,6.03
2023-07-23T04:47:13.866Z,5.90
2023-07-23T04:49:41.896Z,6.16
2023-07-23T04:52:10.184Z,6.02
2023-07-23T04:54:38.168Z,6.15
2023-07-23T04:57:06.304Z,5.85
2023-07-23T04:59:34.470Z,5.72
2023-07-23T05:02:02.648Z,5.61
2023-07-23T05:04:30.669Z,5.70
2023-07-23T05:06:58.736Z,5.57
2023-07-23T05:09:26.857Z,5.44
2023-07-23T05:11:55.710Z,5.68
2023-07-23T05:14:23.782Z,5.52
2023-07-23T05:16:52.052Z,5.80
2023-07-23T05:19:20.067Z,5.41
2023-07-23T05:21:48.057Z,5.32
2023-07-23T05:24:16.208Z,5.39
2023-07-23T05:26:44.238Z,4.63
2023-07-23T05:29:12.220Z,4.60
2023-07-23T05:31:40.460Z,4.59
2023-07-23T05:34:09.651Z,4.75
2023-07-23T05:36:37.715Z,4.72
2023-07-23T05:39:05.837Z,4.59
2023-07-23T05:41:33.962Z,4.40
2023-07-23T05:44:02.286Z,4.42
2023-07-23T05:46:30.414Z,4.48
2023-07-23T05:48:58.545Z,4.20
2023-07-23T05:51:26.735Z,4.33
2023-07-23T05:53:55.270Z,4.73
2023-07-23T05:56:23.372Z,4.33
2023-07-23T05:58:51.459Z,4.31
2023-07-23T06:01:19.576Z,4.27
2023-07-23T06:03:53.807Z,4.39
2023-07-23T06:06:23.387Z,4.33
2023-07-23T06:08:51.565Z,4.52
2023-07-23T06:11:19.549Z,4.45
2023-07-23T06:13:47.606Z,4.01
2023-07-23T06:16:15.599Z,3.85
2023-07-23T06:18:43.616Z,3.56
2023-07-23T06:21:11.620Z,3.93
2023-07-23T06:23:39.725Z,3.93
2023-07-23T06:26:09.828Z,3.38
2023-07-23T06:28:39.983Z,3.66
2023-07-23T06:31:08.062Z,3.50
2023-07-23T06:33:36.210Z,3.78
2023-07-23T06:36:04.678Z,3.57
2023-07-23T06:38:32.891Z,3.87
2023-07-23T06:41:01.160Z,3.62
2023-07-23T06:43:29.439Z,3.55
2023-07-23T06:45:57.450Z,3.56
2023-07-23T06:48:29.843Z,3.29
2023-07-23T06:50:59.262Z,3.28
2023-07-23T06:53:28.317Z,3.33
2023-07-23T06:56:05.622Z,3.23
2023-07-23T06:58:37.927Z,2.93
2023-07-23T07:01:07.711Z,3.03
2023-07-23T07:03:36.519Z,2.83
2023-07-23T07:06:05.433Z,2.94
2023-07-23T07:08:33.669Z,2.96
2023-07-23T07:11:03.245Z,3.11
2023-07-23T07:13:32.074Z,3.04
2023-07-23T07:16:00.859Z,3.04
2023-07-23T07:18:28.921Z,3.06
2023-07-23T07:21:00.911Z,3.07
2023-07-23T07:23:29.682Z,3.31
2023-07-23T07:25:58.360Z,2.99
2023-07-23T07:28:26.553Z,3.22
2023-07-23T07:30:59.750Z,3.25
2023-07-23T07:33:28.613Z,3.52
2023-07-23T07:36:00.360Z,3.05
2023-07-23T07:38:28.794Z,2.98
2023-07-23T07:40:59.746Z,3.37
2023-07-23T07:43:28.057Z,3.32
2023-07-23T07:46:01.115Z,3.16
2023-07-23T07:48:30.939Z,3.37
2023-07-23T07:51:04.603Z,3.16
2023-07-23T07:53:33.542Z,3.23
2023-07-23T07:56:02.063Z,3.03
2023-07-23T07:58:30.762Z,3.24
2023-07-23T08:00:59.890Z,3.14
2023-07-23T08:03:31.395Z,3.15
2023-07-23T08:06:00.012Z,3.14
2023-07-23T08:08:29.936Z,3.24
2023-07-23T08:11:00.167Z,3.42
2023-07-23T08:13:28.297Z,3.13
2023-07-23T08:15:56.889Z,3.22
2023-07-23T08:18:25.851Z,3.29
2023-07-23T08:20:58.517Z,3.44
2023-07-23T08:23:27.284Z,3.19
2023-07-23T08:25:58.212Z,3.20
2023-07-23T08:28:30.626Z,3.36
2023-07-23T08:30:59.159Z,3.17
2023-07-23T08:33:31.442Z,3.24
2023-07-23T08:36:00.380Z,3.25
2023-07-23T08:38:28.704Z,3.31
2023-07-23T08:40:58.462Z,3.28
2023-07-23T08:43:32.343Z,3.53
2023-07-23T08:46:25.123Z,3.34
2023-07-23T08:48:56.571Z,3.27
2023-07-23T08:51:32.004Z,3.39
2023-07-23T08:54:00.351Z,3.51
2023-07-23T08:56:28.466Z,3.79
2023-07-23T08:58:56.498Z,3.79
2023-07-23T09:01:25.034Z,3.71
2023-07-23T09:03:53.235Z,3.46
2023-07-23T09:06:21.434Z,3.49
2023-07-23T09:08:51.960Z,3.76
2023-07-23T09:11:20.114Z,3.73
2023-07-23T09:13:48.485Z,3.78
2023-07-23T09:16:23.973Z,3.53
2023-07-23T09:18:52.038Z,3.40
2023-07-23T09:21:23.976Z,3.62
2023-07-23T09:23:53.536Z,3.71
2023-07-23T09:26:28.033Z,3.77
2023-07-23T09:28:58.150Z,3.68
2023-07-23T09:31:31.025Z,3.70
2023-07-23T09:34:00.702Z,4.04
2023-07-23T09:36:29.254Z,3.71
2023-07-23T09:39:04.835Z,3.51
2023-07-23T09:41:34.103Z,3.58
2023-07-23T09:44:12.488Z,3.77
2023-07-23T09:46:45.291Z,3.75
2023-07-23T09:49:13.875Z,3.96
2023-07-23T09:51:53.021Z,4.57
2023-07-23T09:54:21.608Z,4.24
2023-07-23T09:56:50.997Z,3.57
2023-07-23T09:59:19.069Z,3.45
2023-07-23T10:01:47.433Z,3.56
2023-07-23T10:04:16.410Z,3.32
2023-07-23T10:06:44.452Z,3.52
2023-07-23T10:09:14.133Z,3.39
2023-07-23T10:11:45.063Z,3.39
2023-07-23T10:14:13.144Z,3.51
2023-07-23T10:16:42.574Z,3.35
2023-07-23T10:19:10.630Z,4.02
2023-07-23T10:21:38.889Z,3.90
2023-07-23T10:24:06.944Z,3.70
2023-07-23T10:26:50.202Z,3.65
2023-07-23T10:29:25.334Z,3.57
2023-07-23T10:31:58.446Z,3.57
2023-07-23T10:34:27.243Z,3.21
2023-07-23T10:37:14.525Z,3.48
2023-07-23T10:39:43.879Z,3.24
2023-07-23T10:42:32.065Z,3.21
2023-07-23T10:45:22.866Z,3.41
2023-07-23T10:47:56.722Z,3.47
2023-07-23T10:50:26.537Z,4.07
2023-07-23T10:53:03.699Z,4.20
2023-07-23T10:55:38.281Z,3.99
2023-07-23T10:58:14.182Z,4.00
2023-07-23T11:00:54.093Z,3.11
2023-07-23T11:03:23.494Z,3.19
2023-07-23T11:05:52.433Z,3.23
2023-07-23T11:08:25.152Z,3.29
2023-07-23T11:11:00.080Z,3.22
2023-07-23T11:13:32.459Z,3.19
2023-07-23T11:16:01.280Z,3.29
2023-07-23T11:18:30.501Z,3.29
2023-07-23T11:20:59.167Z,3.26
2023-07-23T11:23:28.444Z,3.44
2023-07-23T11:25:57.765Z,3.48
2023-07-23T11:28:25.954Z,3.02
2023-07-23T11:30:55.767Z,3.03
2023-07-23T11:33:25.351Z,3.26
2023-07-23T11:35:53.515Z,3.19
2023-07-23T11:38:21.530Z,3.02
2023-07-23T11:40:58.568Z,3.02
2023-07-23T11:43:26.663Z,3.20
2023-07-23T11:45:54.893Z,3.27
2023-07-23T11:48:23.672Z,3.41
2023-07-23T11:50:54.767Z,3.17
2023-07-23T11:53:35.036Z,3.21
2023-07-23T11:56:11.751Z,3.21
2023-07-23T11:58:39.862Z,3.21
2023-07-23T12:01:08.832Z,3.16
2023-07-23T12:03:42.391Z,3.41
2023-07-23T12:06:15.173Z,3.13
2023-07-23T12:08:44.424Z,3.24
2023-07-23T12:11:13.644Z,3.71
2023-07-23T12:13:51.425Z,3.49
2023-07-23T12:16:46.157Z,3.61
2023-07-23T12:19:23.530Z,3.36
2023-07-23T12:21:55.636Z,3.61
2023-07-23T12:24:27.912Z,3.33
2023-07-23T12:26:57.691Z,3.46
2023-07-23T12:29:26.884Z,3.44
2023-07-23T12:32:12.972Z,3.37
2023-07-23T12:34:43.276Z,3.27
2023-07-23T12:37:11.904Z,3.38
2023-07-23T12:39:40.094Z,3.48
2023-07-23T12:42:08.255Z,3.79
2023-07-23T12:44:36.325Z,3.55
2023-07-23T12:47:04.380Z,3.48
2023-07-23T12:49:32.584Z,3.54
2023-07-23T12:52:00.681Z,3.56
2023-07-23T12:54:28.970Z,3.81
2023-07-23T12:56:57.452Z,3.78
2023-07-23T12:59:25.488Z,3.70
2023-07-23T13:01:53.525Z,3.49
2023-07-23T13:04:21.829Z,3.57
2023-07-23T13:06:50.101Z,3.62
2023-07-23T13:09:18.369Z,3.83
2023-07-23T13:11:46.443Z,3.67
2023-07-23T13:14:14.440Z,3.63
2023-07-23T13:16:42.677Z,4.00
2023-07-23T13:19:10.778Z,4.08
2023-07-23T13:21:38.922Z,3.95
2023-07-23T13:24:06.949Z,4.22
2023-07-23T13:26:35.096Z,3.63
2023-07-23T13:29:03.176Z,3.72
2023-07-23T13:31:34.313Z,4.09
2023-07-23T13:34:02.387Z,4.17
2023-07-23T13:36:31.336Z,4.01
2023-07-23T13:38:59.703Z,3.70
2023-07-23T13:41:27.950Z,4.09
2023-07-23T13:43:55.955Z,3.62
2023-07-23T13:46:23.917Z,3.58
2023-07-23T13:48:53.054Z,4.11
2023-07-23T13:51:22.349Z,4.01
2023-07-23T13:53:51.316Z,3.92
2023-07-23T13:56:19.517Z,3.92
2023-07-23T13:58:47.806Z,3.72
2023-07-23T14:01:15.897Z,4.05
2023-07-23T14:03:44.177Z,3.96
2023-07-23T14:06:12.279Z,3.64
2023-07-23T14:08:40.475Z,3.75
2023-07-23T14:11:08.604Z,3.99
2023-07-23T14:13:37.093Z,4.34
2023-07-23T14:16:05.284Z,4.21
2023-07-23T14:18:33.410Z,4.13
2023-07-23T14:21:02.021Z,4.01
2023-07-23T14:23:30.110Z,3.95
2023-07-23T14:25:58.126Z,4.03
2023-07-23T14:28:26.078Z,3.80
2023-07-23T14:30:54.432Z,4.13
2023-07-23T14:33:22.706Z,4.06
2023-07-23T14:35:54.938Z,4.12
2023-07-23T14:38:23.067Z,3.98
2023-07-23T14:40:51.167Z,3.77
2023-07-23T14:43:19.319Z,4.23
2023-07-23T14:45:47.706Z,4.22
2023-07-23T14:48:16.453Z,4.13
2023-07-23T14:50:44.674Z,4.15
2023-07-23T14:53:12.872Z,3.99
2023-07-23T14:55:41.027Z,4.48
2023-07-23T14:58:12.975Z,4.25
2023-07-23T15:00:45.908Z,3.96
2023-07-23T15:03:18.764Z,4.01
2023-07-23T15:05:47.179Z,4.30
2023-07-23T15:08:15.314Z,4.45
2023-07-23T15:10:43.615Z,4.03
2023-07-23T15:13:11.895Z,4.17
2023-07-23T15:15:40.282Z,4.16
2023-07-23T15:18:08.991Z,4.10
2023-07-23T15:20:37.625Z,4.85
2023-07-23T15:23:06.049Z,4.17
2023-07-23T15:25:34.473Z,4.20
2023-07-23T15:28:03.780Z,4.21
2023-07-23T15:30:34.757Z,4.56
2023-07-23T15:33:03.014Z,6.88
2023-07-23T15:35:31.114Z,6.05
2023-07-23T15:37:59.278Z,5.62
2023-07-23T15:40:27.404Z,4.72
2023-07-23T15:42:55.502Z,3.84
2023-07-23T15:45:25.492Z,3.75
2023-07-23T15:47:53.557Z,4.02
2023-07-23T15:50:21.641Z,3.90
2023-07-23T15:52:49.662Z,4.45
2023-07-23T15:55:17.967Z,4.06
2023-07-23T15:57:46.303Z,3.91
2023-07-23T16:00:14.641Z,3.99
2023-07-23T16:02:43.635Z,4.66
2023-07-23T16:05:11.839Z,4.68
2023-07-23T16:07:40.046Z,4.19
2023-07-23T16:10:08.706Z,4.14
2023-07-23T16:12:36.795Z,4.64
2023-07-23T16:15:05.663Z,4.40
2023-07-23T16:17:33.729Z,4.17
2023-07-23T16:20:02.028Z,4.33
2023-07-23T16:22:30.084Z,4.11
2023-07-23T16:24:58.151Z,4.42
2023-07-23T16:27:29.933Z,4.59
2023-07-23T16:29:58.093Z,4.54
2023-07-23T16:32:27.069Z,4.29
2023-07-23T16:34:55.378Z,3.98
2023-07-23T16:37:23.773Z,4.01
2023-07-23T16:39:54.958Z,4.16
2023-07-23T16:42:23.172Z,4.15
2023-07-23T16:44:52.580Z,3.56
2023-07-23T16:47:20.662Z,4.12
2023-07-23T16:49:48.755Z,4.06
2023-07-23T16:52:16.978Z,4.42
2023-07-23T16:54:45.019Z,4.29
2023-07-23T16:57:13.328Z,4.66
2023-07-23T16:59:44.978Z,4.60
2023-07-23T17:02:14.613Z,4.33
2023-07-23T17:04:42.833Z,4.43
2023-07-23T17:07:11.843Z,4.65
2023-07-23T17:09:40.127Z,5.09
2023-07-23T17:12:08.266Z,4.95
2023-07-23T17:14:37.303Z,4.52
2023-07-23T17:17:06.101Z,4.70
2023-07-23T17:19:34.458Z,4.82
2023-07-23T17:22:03.408Z,4.96
2023-07-23T17:24:31.531Z,4.76
2023-07-23T17:26:59.782Z,4.75
2023-07-23T17:29:28.176Z,4.66
2023-07-23T17:31:56.663Z,4.61
2023-07-23T17:34:24.786Z,4.42
2023-07-23T17:36:53.050Z,4.52
2023-07-23T17:39:21.029Z,5.08
2023-07-23T17:41:49.096Z,4.88
2023-07-23T17:44:17.204Z,4.65
2023-07-23T17:46:45.330Z,4.36
2023-07-23T17:49:14.757Z,4.76
2023-07-23T17:51:43.102Z,4.86
2023-07-23T17:54:11.054Z,5.13
2023-07-23T17:56:39.206Z,5.02
2023-07-23T17:59:08.121Z,4.78
2023-07-23T18:01:36.127Z,4.84
2023-07-23T18:04:06.917Z,4.73
2023-07-23T18:06:35.205Z,4.86
2023-07-23T18:09:03.298Z,5.12
2023-07-23T18:11:31.333Z,4.97
2023-07-23T18:13:59.715Z,4.95
2023-07-23T18:16:28.454Z,5.00
2023-07-23T18:18:57.087Z,4.96
2023-07-23T18:21:25.269Z,5.33
2023-07-23T18:23:53.429Z,5.16
2023-07-23T18:26:21.478Z,5.26
2023-07-23T18:28:49.992Z,5.15
2023-07-23T18:31:34.491Z,5.71
2023-07-23T18:34:04.406Z,5.20
2023-07-23T18:36:33.126Z,6.16
2023-07-23T18:39:01.581Z,5.60
2023-07-23T18:41:33.908Z,5.41
2023-07-23T18:44:03.452Z,5.60
2023-07-23T18:46:32.058Z,6.20
2023-07-23T18:49:01.578Z,5.69
2023-07-23T18:51:29.997Z,5.70
2023-07-23T18:53:58.450Z,5.49
2023-07-23T18:56:26.913Z,5.90
2023-07-23T18:58:55.628Z,5.49
2023-07-23T19:01:23.711Z,5.67
2023-07-23T19:03:52.102Z,5.61
2023-07-23T19:06:20.461Z,5.95
2023-07-23T19:08:52.020Z,5.64
2023-07-23T19:11:20.715Z,5.67
2023-07-23T19:13:49.186Z,5.48
2023-07-23T19:16:17.580Z,5.67
2023-07-23T19:18:45.795Z,5.84
2023-07-23T19:21:14.186Z,5.91
2023-07-23T19:23:42.425Z,5.94
2023-07-23T19:26:10.474Z,6.13
2023-07-23T19:28:38.573Z,5.66
2023-07-23T19:31:08.422Z,6.03
2023-07-23T19:33:36.539Z,6.04
2023-07-23T19:36:04.714Z,6.42
2023-07-23T19:38:33.078Z,6.34
2023-07-23T19:41:01.341Z,6.26
2023-07-23T19:43:29.612Z,6.17
2023-07-23T19:45:57.848Z,5.94
2023-07-23T19:48:27.128Z,6.36
2023-07-23T19:50:55.203Z,6.29
2023-07-23T19:53:24.705Z,6.10
2023-07-23T19:55:53.901Z,6.18
2023-07-23T19:58:23.593Z,5.80
2023-07-23T20:00:51.674Z,5.99
2023-07-23T20:03:19.803Z,6.21
2023-07-23T20:05:48.728Z,5.96
2023-07-23T20:08:16.780Z,5.92
2023-07-23T20:10:44.797Z,5.82
2023-07-23T20:13:13.030Z,6.22
2023-07-23T20:15:41.314Z,6.21
2023-07-23T20:18:09.429Z,6.57
2023-07-23T20:20:37.671Z,6.66
2023-07-23T20:23:05.732Z,6.49
2023-07-23T20:25:35.627Z,6.76
2023-07-23T20:28:04.026Z,6.74
2023-07-23T20:30:32.621Z,6.74
2023-07-23T20:33:02.005Z,6.86
2023-07-23T20:35:30.953Z,6.72
2023-07-23T20:37:59.821Z,6.81
2023-07-23T20:40:28.797Z,6.58
2023-07-23T20:42:57.481Z,6.59
2023-07-23T20:45:26.784Z,6.75
2023-07-23T20:47:56.182Z,6.44
2023-07-23T20:50:25.084Z,6.27
2023-07-23T20:52:53.337Z,6.21
2023-07-23T20:55:21.528Z,6.42
2023-07-23T20:57:49.900Z,6.13
2023-07-23T21:00:19.506Z,6.55
2023-07-23T21:02:48.743Z,5.82
2023-07-23T21:05:17.286Z,6.08
2023-07-23T21:07:45.384Z,6.08
2023-07-23T21:10:14.200Z,5.93
2023-07-23T21:12:42.314Z,6.24
2023-07-23T21:15:10.712Z,6.25
2023-07-23T21:17:38.693Z,6.56
2023-07-23T21:20:08.745Z,6.33
2023-07-23T21:22:37.589Z,6.11
2023-07-23T21:25:06.164Z,6.36
2023-07-23T21:27:34.439Z,6.23
2023-07-23T21:30:06.741Z,6.52
2023-07-23T21:32:35.033Z,6.15
2023-07-23T21:35:03.501Z,6.31
2023-07-23T21:37:32.172Z,6.64
2023-07-23T21:40:00.429Z,6.31
2023-07-23T21:42:28.844Z,6.26
2023-07-23T21:44:59.542Z,6.09
2023-07-23T21:47:27.944Z,6.28
2023-07-23T21:49:56.248Z,6.48
2023-07-23T21:52:25.727Z,6.34
2023-07-23T21:54:54.082Z,5.81
2023-07-23T21:57:22.291Z,6.17
2023-07-23T21:59:50.446Z,5.99
2023-07-23T22:02:18.694Z,6.19
2023-07-23T22:04:47.083Z,6.11
2023-07-23T22:07:18.376Z,5.96
2023-07-23T22:09:48.062Z,6.13
2023-07-23T22:12:16.576Z,6.18
2023-07-23T22:14:47.690Z,6.93
2023-07-23T22:17:18.127Z,6.82
2023-07-23T22:19:46.287Z,6.95
2023-07-23T22:22:14.679Z,6.63
2023-07-23T22:24:43.001Z,6.85
2023-07-23T22:27:11.417Z,6.99
2023-07-23T22:29:39.488Z,7.09
2023-07-23T22:32:07.966Z,7.09
2023-07-23T22:34:39.055Z,7.08
2023-07-23T22:37:07.086Z,7.40
2023-07-23T22:39:35.402Z,7.23
2023-07-23T22:42:04.813Z,7.33
2023-07-23T22:44:35.706Z,7.15
2023-07-23T22:47:08.576Z,7.22
2023-07-23T22:49:38.150Z,7.35
2023-07-23T22:52:06.859Z,7.09
2023-07-23T22:54:34.912Z,7.13
2023-07-23T22:57:05.568Z,7.10
2023-07-23T22:59:43.286Z,7.07
2023-07-23T23:02:13.200Z,7.29
2023-07-23T23:04:41.365Z,7.05
2023-07-23T23:07:09.776Z,7.25
2023-07-23T23:09:37.739Z,7.22
2023-07-23T23:12:06.073Z,7.10
2023-07-23T23:14:34.266Z,6.88
2023-07-23T23:17:02.358Z,7.14
2023-07-23T23:19:30.510Z,6.87
2023-07-23T23:21:58.698Z,6.81
2023-07-23T23:24:26.793Z,6.86
2023-07-23T23:26:54.952Z,6.58
2023-07-23T23:29:23.226Z,6.90
2023-07-23T23:31:51.408Z,6.27
2023-07-23T23:34:19.770Z,6.33
2023-07-23T23:36:47.875Z,6.61
2023-07-23T23:39:16.001Z,6.86
2023-07-23T23:41:43.988Z,6.74
2023-07-23T23:44:12.090Z,6.47
2023-07-23T23:46:40.182Z,6.75
2023-07-23T23:49:11.391Z,6.71
2023-07-23T23:51:40.887Z,6.35
2023-07-23T23:54:08.873Z,6.78
2023-07-23T23:56:42.733Z,6.80
2023-07-23T23:59:16.927Z,6.52
